sensor_id;sensor_type;location;lat;lon;timestamp;P1;durP1;ratioP1;P2;durP2;ratioP2
8331;SDS011;4203;48.144;14.118;2023-02-02T00:00:30;3.90;;;2.43;;
8331;SDS011;4203;48.144;14.118;2023-02-02T00:02:59;2.47;;;2.00;;
8331;SDS011;4203;48.144;14.118;2023-02-02T00:05:26;2.47;;;2.00;;
8331;SDS011;4203;48.144;14.118;2023-02-02T00:07:53;4.03;;;1.93;;
8331;SDS011;4203;48.144;14.118;2023-02-02T00:10:21;5.60;;;2.30;;
8331;SDS011;4203;48.144;14.118;2023-02-02T00:12:48;3.23;;;2.00;;
8331;SDS011;4203;48.144;14.118;2023-02-02T00:15:15;2.60;;;2.10;;
8331;SDS011;4203;48.144;14.118;2023-02-02T00:17:42;6.50;;;2.50;;
8331;SDS011;4203;48.144;14.118;2023-02-02T00:20:11;3.17;;;2.03;;
8331;SDS011;4203;48.144;14.118;2023-02-02T00:22:38;3.10;;;2.13;;
8331;SDS011;4203;48.144;14.118;2023-02-02T00:25:06;5.30;;;2.20;;
8331;SDS011;4203;48.144;14.118;2023-02-02T00:27:34;4.87;;;2.23;;
8331;SDS011;4203;48.144;14.118;2023-02-02T00:30:01;6.97;;;2.20;;
8331;SDS011;4203;48.144;14.118;2023-02-02T00:32:30;3.40;;;2.20;;
8331;SDS011;4203;48.144;14.118;2023-02-02T00:34:57;4.53;;;2.20;;
8331;SDS011;4203;48.144;14.118;2023-02-02T00:37:26;5.37;;;2.30;;
8331;SDS011;4203;48.144;14.118;2023-02-02T00:39:53;2.63;;;2.43;;
8331;SDS011;4203;48.144;14.118;2023-02-02T00:42:20;5.53;;;2.30;;
8331;SDS011;4203;48.144;14.118;2023-02-02T00:44:47;5.17;;;2.40;;
8331;SDS011;4203;48.144;14.118;2023-02-02T00:47:32;5.00;;;2.33;;
8331;SDS011;4203;48.144;14.118;2023-02-02T00:49:59;3.53;;;2.27;;
8331;SDS011;4203;48.144;14.118;2023-02-02T00:52:28;3.73;;;2.07;;
8331;SDS011;4203;48.144;14.118;2023-02-02T00:54:57;6.00;;;2.00;;
8331;SDS011;4203;48.144;14.118;2023-02-02T00:57:24;3.07;;;1.70;;
8331;SDS011;4203;48.144;14.118;2023-02-02T00:59:51;3.17;;;2.20;;
8331;SDS011;4203;48.144;14.118;2023-02-02T01:02:18;7.90;;;2.87;;
8331;SDS011;4203;48.144;14.118;2023-02-02T01:04:45;6.60;;;2.20;;
8331;SDS011;4203;48.144;14.118;2023-02-02T01:07:13;3.77;;;1.87;;
8331;SDS011;4203;48.144;14.118;2023-02-02T01:09:41;4.30;;;1.70;;
8331;SDS011;4203;48.144;14.118;2023-02-02T01:12:08;3.47;;;1.80;;
8331;SDS011;4203;48.144;14.118;2023-02-02T01:14:35;5.30;;;2.10;;
8331;SDS011;4203;48.144;14.118;2023-02-02T01:17:03;2.27;;;1.80;;
8331;SDS011;4203;48.144;14.118;2023-02-02T01:19:30;2.17;;;1.93;;
8331;SDS011;4203;48.144;14.118;2023-02-02T01:21:57;3.17;;;1.70;;
8331;SDS011;4203;48.144;14.118;2023-02-02T01:24:25;4.53;;;1.97;;
8331;SDS011;4203;48.144;14.118;2023-02-02T01:26:53;5.07;;;2.07;;
8331;SDS011;4203;48.144;14.118;2023-02-02T01:29:21;4.90;;;1.93;;
8331;SDS011;4203;48.144;14.118;2023-02-02T01:31:48;3.67;;;2.23;;
8331;SDS011;4203;48.144;14.118;2023-02-02T01:34:15;3.23;;;1.90;;
8331;SDS011;4203;48.144;14.118;2023-02-02T01:36:42;2.57;;;2.00;;
8331;SDS011;4203;48.144;14.118;2023-02-02T01:39:10;4.37;;;1.90;;
8331;SDS011;4203;48.144;14.118;2023-02-02T01:41:39;4.87;;;2.00;;
8331;SDS011;4203;48.144;14.118;2023-02-02T01:47:08;3.30;;;1.90;;
8331;SDS011;4203;48.144;14.118;2023-02-02T01:49:36;8.80;;;2.63;;
8331;SDS011;4203;48.144;14.118;2023-02-02T01:52:04;2.30;;;2.10;;
8331;SDS011;4203;48.144;14.118;2023-02-02T01:54:32;4.50;;;2.07;;
8331;SDS011;4203;48.144;14.118;2023-02-02T01:57:01;4.03;;;1.90;;
8331;SDS011;4203;48.144;14.118;2023-02-02T01:59:30;1.70;;;1.60;;
8331;SDS011;4203;48.144;14.118;2023-02-02T02:01:59;4.37;;;2.03;;
8331;SDS011;4203;48.144;14.118;2023-02-02T02:04:29;2.10;;;1.83;;
8331;SDS011;4203;48.144;14.118;2023-02-02T02:06:58;8.43;;;1.97;;
8331;SDS011;4203;48.144;14.118;2023-02-02T02:09:27;5.00;;;2.03;;
8331;SDS011;4203;48.144;14.118;2023-02-02T02:11:54;3.73;;;2.10;;
8331;SDS011;4203;48.144;14.118;2023-02-02T02:14:21;6.83;;;2.10;;
8331;SDS011;4203;48.144;14.118;2023-02-02T02:17:13;5.73;;;2.27;;
8331;SDS011;4203;48.144;14.118;2023-02-02T02:20:17;4.53;;;2.30;;
8331;SDS011;4203;48.144;14.118;2023-02-02T02:33:09;4.10;;;1.70;;
8331;SDS011;4203;48.144;14.118;2023-02-02T02:35:45;6.70;;;1.90;;
8331;SDS011;4203;48.144;14.118;2023-02-02T02:38:20;3.23;;;1.90;;
8331;SDS011;4203;48.144;14.118;2023-02-02T02:40:53;4.97;;;2.00;;
8331;SDS011;4203;48.144;14.118;2023-02-02T02:43:25;5.67;;;1.90;;
8331;SDS011;4203;48.144;14.118;2023-02-02T02:45:55;3.67;;;1.60;;
8331;SDS011;4203;48.144;14.118;2023-02-02T02:48:24;6.10;;;2.03;;
8331;SDS011;4203;48.144;14.118;2023-02-02T02:50:51;3.47;;;2.70;;
8331;SDS011;4203;48.144;14.118;2023-02-02T02:53:19;2.83;;;1.83;;
8331;SDS011;4203;48.144;14.118;2023-02-02T02:55:48;2.27;;;1.90;;
8331;SDS011;4203;48.144;14.118;2023-02-02T02:58:20;4.73;;;2.40;;
8331;SDS011;4203;48.144;14.118;2023-02-02T03:00:58;5.63;;;1.83;;
8331;SDS011;4203;48.144;14.118;2023-02-02T03:06:27;0.70;;;0.70;;
8331;SDS011;4203;48.144;14.118;2023-02-02T03:09:08;0.40;;;0.40;;
8331;SDS011;4203;48.144;14.118;2023-02-02T03:17:06;1.77;;;0.50;;
8331;SDS011;4203;48.144;14.118;2023-02-02T03:19:36;0.30;;;0.30;;
8331;SDS011;4203;48.144;14.118;2023-02-02T03:22:03;0.40;;;0.40;;
8331;SDS011;4203;48.144;14.118;2023-02-02T03:24:31;0.30;;;0.30;;
8331;SDS011;4203;48.144;14.118;2023-02-02T03:26:58;0.30;;;0.30;;
8331;SDS011;4203;48.144;14.118;2023-02-02T03:29:26;0.30;;;0.30;;
8331;SDS011;4203;48.144;14.118;2023-02-02T03:31:54;0.20;;;0.20;;
8331;SDS011;4203;48.144;14.118;2023-02-02T03:34:23;0.50;;;0.50;;
8331;SDS011;4203;48.144;14.118;2023-02-02T03:37:27;0.50;;;0.50;;
8331;SDS011;4203;48.144;14.118;2023-02-02T03:40:01;0.30;;;0.30;;
8331;SDS011;4203;48.144;14.118;2023-02-02T03:42:44;0.30;;;0.30;;
8331;SDS011;4203;48.144;14.118;2023-02-02T03:45:12;1.00;;;0.30;;
8331;SDS011;4203;48.144;14.118;2023-02-02T03:47:42;0.47;;;0.30;;
8331;SDS011;4203;48.144;14.118;2023-02-02T03:50:23;0.30;;;0.30;;
8331;SDS011;4203;48.144;14.118;2023-02-02T04:40:15;0.90;;;0.77;;
8331;SDS011;4203;48.144;14.118;2023-02-02T04:45:39;0.70;;;0.70;;
8331;SDS011;4203;48.144;14.118;2023-02-02T04:48:07;0.50;;;0.50;;
8331;SDS011;4203;48.144;14.118;2023-02-02T04:50:34;0.40;;;0.40;;
8331;SDS011;4203;48.144;14.118;2023-02-02T04:53:04;0.50;;;0.50;;
8331;SDS011;4203;48.144;14.118;2023-02-02T04:55:36;0.60;;;0.60;;
8331;SDS011;4203;48.144;14.118;2023-02-02T04:58:03;1.33;;;0.50;;
8331;SDS011;4203;48.144;14.118;2023-02-02T05:00:31;0.90;;;0.60;;
8331;SDS011;4203;48.144;14.118;2023-02-02T05:02:58;0.70;;;0.70;;
8331;SDS011;4203;48.144;14.118;2023-02-02T05:05:26;0.87;;;0.87;;
8331;SDS011;4203;48.144;14.118;2023-02-02T05:07:53;2.03;;;1.83;;
8331;SDS011;4203;48.144;14.118;2023-02-02T05:10:20;1.17;;;1.17;;
8331;SDS011;4203;48.144;14.118;2023-02-02T05:12:50;2.67;;;2.33;;
8331;SDS011;4203;48.144;14.118;2023-02-02T05:15:18;1.50;;;1.40;;
8331;SDS011;4203;48.144;14.118;2023-02-02T05:17:45;2.60;;;1.67;;
8331;SDS011;4203;48.144;14.118;2023-02-02T05:20:12;0.73;;;0.73;;
8331;SDS011;4203;48.144;14.118;2023-02-02T05:22:41;0.60;;;0.60;;
8331;SDS011;4203;48.144;14.118;2023-02-02T05:25:08;0.60;;;0.60;;
8331;SDS011;4203;48.144;14.118;2023-02-02T05:27:37;0.80;;;0.80;;
8331;SDS011;4203;48.144;14.118;2023-02-02T05:30:07;0.70;;;0.70;;
8331;SDS011;4203;48.144;14.118;2023-02-02T05:32:36;0.70;;;0.70;;
8331;SDS011;4203;48.144;14.118;2023-02-02T05:35:03;0.70;;;0.70;;
8331;SDS011;4203;48.144;14.118;2023-02-02T05:37:31;0.77;;;0.77;;
8331;SDS011;4203;48.144;14.118;2023-02-02T05:39:58;0.80;;;0.80;;
8331;SDS011;4203;48.144;14.118;2023-02-02T05:42:27;0.73;;;0.73;;
8331;SDS011;4203;48.144;14.118;2023-02-02T05:45:20;0.97;;;0.90;;
8331;SDS011;4203;48.144;14.118;2023-02-02T05:47:52;0.90;;;0.90;;
8331;SDS011;4203;48.144;14.118;2023-02-02T05:50:19;1.30;;;1.30;;
8331;SDS011;4203;48.144;14.118;2023-02-02T05:52:47;1.10;;;1.10;;
8331;SDS011;4203;48.144;14.118;2023-02-02T05:55:15;1.10;;;1.00;;
8331;SDS011;4203;48.144;14.118;2023-02-02T05:57:44;1.10;;;1.10;;
8331;SDS011;4203;48.144;14.118;2023-02-02T06:00:11;0.90;;;0.90;;
8331;SDS011;4203;48.144;14.118;2023-02-02T06:02:40;2.30;;;1.03;;
8331;SDS011;4203;48.144;14.118;2023-02-02T06:05:08;0.90;;;0.90;;
8331;SDS011;4203;48.144;14.118;2023-02-02T06:07:35;0.90;;;0.90;;
8331;SDS011;4203;48.144;14.118;2023-02-02T06:10:02;0.80;;;0.80;;
8331;SDS011;4203;48.144;14.118;2023-02-02T06:12:30;0.90;;;0.90;;
8331;SDS011;4203;48.144;14.118;2023-02-02T06:14:57;1.00;;;1.00;;
8331;SDS011;4203;48.144;14.118;2023-02-02T06:17:24;1.10;;;1.10;;
8331;SDS011;4203;48.144;14.118;2023-02-02T06:19:53;1.20;;;1.20;;
8331;SDS011;4203;48.144;14.118;2023-02-02T06:22:20;0.80;;;0.80;;
8331;SDS011;4203;48.144;14.118;2023-02-02T06:24:47;0.70;;;0.70;;
8331;SDS011;4203;48.144;14.118;2023-02-02T06:27:17;0.90;;;0.90;;
8331;SDS011;4203;48.144;14.118;2023-02-02T06:29:44;1.03;;;1.03;;
8331;SDS011;4203;48.144;14.118;2023-02-02T06:32:11;1.10;;;1.10;;
8331;SDS011;4203;48.144;14.118;2023-02-02T06:34:39;0.93;;;0.93;;
8331;SDS011;4203;48.144;14.118;2023-02-02T06:37:07;1.50;;;1.50;;
8331;SDS011;4203;48.144;14.118;2023-02-02T06:39:34;1.50;;;1.50;;
8331;SDS011;4203;48.144;14.118;2023-02-02T06:42:02;0.90;;;0.90;;
8331;SDS011;4203;48.144;14.118;2023-02-02T06:44:29;1.17;;;1.17;;
8331;SDS011;4203;48.144;14.118;2023-02-02T06:46:56;1.00;;;1.00;;
8331;SDS011;4203;48.144;14.118;2023-02-02T06:49:23;1.13;;;1.03;;
8331;SDS011;4203;48.144;14.118;2023-02-02T06:51:50;1.60;;;1.20;;
8331;SDS011;4203;48.144;14.118;2023-02-02T06:54:19;1.20;;;1.20;;
8331;SDS011;4203;48.144;14.118;2023-02-02T06:56:46;1.73;;;0.97;;
8331;SDS011;4203;48.144;14.118;2023-02-02T06:59:13;1.00;;;1.00;;
8331;SDS011;4203;48.144;14.118;2023-02-02T07:01:40;1.00;;;1.00;;
8331;SDS011;4203;48.144;14.118;2023-02-02T07:04:08;1.53;;;1.43;;
8331;SDS011;4203;48.144;14.118;2023-02-02T07:06:35;1.13;;;1.03;;
8331;SDS011;4203;48.144;14.118;2023-02-02T07:09:03;1.30;;;1.30;;
8331;SDS011;4203;48.144;14.118;2023-02-02T07:11:32;1.00;;;1.00;;
8331;SDS011;4203;48.144;14.118;2023-02-02T07:14:01;1.93;;;0.90;;
8331;SDS011;4203;48.144;14.118;2023-02-02T07:16:28;0.80;;;0.80;;
8331;SDS011;4203;48.144;14.118;2023-02-02T07:18:56;0.90;;;0.90;;
8331;SDS011;4203;48.144;14.118;2023-02-02T07:21:23;0.70;;;0.70;;
8331;SDS011;4203;48.144;14.118;2023-02-02T07:23:52;0.80;;;0.80;;
8331;SDS011;4203;48.144;14.118;2023-02-02T07:26:19;0.80;;;0.80;;
8331;SDS011;4203;48.144;14.118;2023-02-02T07:28:48;1.57;;;0.90;;
8331;SDS011;4203;48.144;14.118;2023-02-02T07:31:16;0.80;;;0.80;;
8331;SDS011;4203;48.144;14.118;2023-02-02T07:33:45;0.97;;;0.70;;
8331;SDS011;4203;48.144;14.118;2023-02-02T07:36:13;1.10;;;1.10;;
8331;SDS011;4203;48.144;14.118;2023-02-02T07:38:42;0.80;;;0.80;;
8331;SDS011;4203;48.144;14.118;2023-02-02T07:41:09;1.03;;;0.90;;
8331;SDS011;4203;48.144;14.118;2023-02-02T07:43:36;0.97;;;0.90;;
8331;SDS011;4203;48.144;14.118;2023-02-02T07:46:05;0.93;;;0.93;;
8331;SDS011;4203;48.144;14.118;2023-02-02T07:48:34;1.10;;;1.00;;
8331;SDS011;4203;48.144;14.118;2023-02-02T07:51:02;0.90;;;0.90;;
8331;SDS011;4203;48.144;14.118;2023-02-02T07:53:31;1.00;;;1.00;;
8331;SDS011;4203;48.144;14.118;2023-02-02T07:56:06;0.90;;;0.90;;
8331;SDS011;4203;48.144;14.118;2023-02-02T07:58:34;0.93;;;0.83;;
8331;SDS011;4203;48.144;14.118;2023-02-02T08:01:02;3.40;;;1.30;;
8331;SDS011;4203;48.144;14.118;2023-02-02T08:03:32;1.23;;;1.13;;
8331;SDS011;4203;48.144;14.118;2023-02-02T08:06:00;1.40;;;1.30;;
8331;SDS011;4203;48.144;14.118;2023-02-02T08:08:33;2.33;;;0.97;;
8331;SDS011;4203;48.144;14.118;2023-02-02T08:11:01;1.00;;;1.00;;
8331;SDS011;4203;48.144;14.118;2023-02-02T08:13:28;0.90;;;0.90;;
8331;SDS011;4203;48.144;14.118;2023-02-02T08:15:56;0.97;;;0.97;;
8331;SDS011;4203;48.144;14.118;2023-02-02T08:18:23;0.90;;;0.90;;
8331;SDS011;4203;48.144;14.118;2023-02-02T08:20:52;1.00;;;1.00;;
8331;SDS011;4203;48.144;14.118;2023-02-02T08:23:19;1.03;;;1.03;;
8331;SDS011;4203;48.144;14.118;2023-02-02T08:25:47;0.80;;;0.80;;
8331;SDS011;4203;48.144;14.118;2023-02-02T08:28:15;1.20;;;1.10;;
8331;SDS011;4203;48.144;14.118;2023-02-02T08:30:43;0.73;;;0.73;;
8331;SDS011;4203;48.144;14.118;2023-02-02T08:33:12;0.87;;;0.87;;
8331;SDS011;4203;48.144;14.118;2023-02-02T08:35:40;0.80;;;0.80;;
8331;SDS011;4203;48.144;14.118;2023-02-02T08:38:08;0.70;;;0.70;;
8331;SDS011;4203;48.144;14.118;2023-02-02T08:40:36;0.83;;;0.80;;
8331;SDS011;4203;48.144;14.118;2023-02-02T08:43:03;0.90;;;0.90;;
8331;SDS011;4203;48.144;14.118;2023-02-02T08:45:30;1.80;;;0.90;;
8331;SDS011;4203;48.144;14.118;2023-02-02T08:47:57;2.30;;;0.80;;
8331;SDS011;4203;48.144;14.118;2023-02-02T08:50:24;0.70;;;0.70;;
8331;SDS011;4203;48.144;14.118;2023-02-02T08:52:52;0.70;;;0.70;;
8331;SDS011;4203;48.144;14.118;2023-02-02T08:55:20;0.80;;;0.80;;
8331;SDS011;4203;48.144;14.118;2023-02-02T08:57:47;0.80;;;0.80;;
8331;SDS011;4203;48.144;14.118;2023-02-02T09:00:15;0.87;;;0.87;;
8331;SDS011;4203;48.144;14.118;2023-02-02T09:02:43;0.87;;;0.87;;
8331;SDS011;4203;48.144;14.118;2023-02-02T09:05:10;2.40;;;0.90;;
8331;SDS011;4203;48.144;14.118;2023-02-02T09:07:37;1.80;;;0.60;;
8331;SDS011;4203;48.144;14.118;2023-02-02T09:10:05;0.70;;;0.70;;
8331;SDS011;4203;48.144;14.118;2023-02-02T09:12:34;0.63;;;0.63;;
8331;SDS011;4203;48.144;14.118;2023-02-02T09:15:01;0.87;;;0.87;;
8331;SDS011;4203;48.144;14.118;2023-02-02T09:17:28;1.10;;;0.70;;
8331;SDS011;4203;48.144;14.118;2023-02-02T09:19:55;1.90;;;0.50;;
8331;SDS011;4203;48.144;14.118;2023-02-02T09:22:22;0.70;;;0.70;;
8331;SDS011;4203;48.144;14.118;2023-02-02T09:24:49;0.97;;;0.60;;
8331;SDS011;4203;48.144;14.118;2023-02-02T09:27:16;0.80;;;0.80;;
8331;SDS011;4203;48.144;14.118;2023-02-02T09:29:45;0.80;;;0.80;;
8331;SDS011;4203;48.144;14.118;2023-02-02T09:32:12;0.70;;;0.70;;
8331;SDS011;4203;48.144;14.118;2023-02-02T09:34:39;1.07;;;0.50;;
8331;SDS011;4203;48.144;14.118;2023-02-02T09:37:07;1.33;;;0.80;;
8331;SDS011;4203;48.144;14.118;2023-02-02T09:39:34;0.67;;;0.67;;
8331;SDS011;4203;48.144;14.118;2023-02-02T09:42:20;0.70;;;0.70;;
8331;SDS011;4203;48.144;14.118;2023-02-02T09:44:57;0.73;;;0.73;;
8331;SDS011;4203;48.144;14.118;2023-02-02T09:47:33;0.50;;;0.50;;
8331;SDS011;4203;48.144;14.118;2023-02-02T09:50:11;0.67;;;0.67;;
8331;SDS011;4203;48.144;14.118;2023-02-02T09:52:44;0.80;;;0.80;;
8331;SDS011;4203;48.144;14.118;2023-02-02T09:55:15;0.83;;;0.83;;
8331;SDS011;4203;48.144;14.118;2023-02-02T09:57:49;0.70;;;0.70;;
8331;SDS011;4203;48.144;14.118;2023-02-02T10:00:24;0.60;;;0.60;;
8331;SDS011;4203;48.144;14.118;2023-02-02T10:02:57;0.67;;;0.67;;
8331;SDS011;4203;48.144;14.118;2023-02-02T10:05:28;0.70;;;0.70;;
8331;SDS011;4203;48.144;14.118;2023-02-02T10:08:01;0.70;;;0.70;;
8331;SDS011;4203;48.144;14.118;2023-02-02T10:10:34;0.97;;;0.70;;
8331;SDS011;4203;48.144;14.118;2023-02-02T10:13:09;0.70;;;0.70;;
8331;SDS011;4203;48.144;14.118;2023-02-02T10:15:43;0.70;;;0.70;;
8331;SDS011;4203;48.144;14.118;2023-02-02T10:18:16;0.50;;;0.50;;
8331;SDS011;4203;48.144;14.118;2023-02-02T10:20:49;0.50;;;0.50;;
8331;SDS011;4203;48.144;14.118;2023-02-02T10:23:22;0.60;;;0.60;;
8331;SDS011;4203;48.144;14.118;2023-02-02T10:25:56;0.83;;;0.83;;
8331;SDS011;4203;48.144;14.118;2023-02-02T10:28:40;0.97;;;0.97;;
8331;SDS011;4203;48.144;14.118;2023-02-02T10:31:13;1.40;;;0.83;;
8331;SDS011;4203;48.144;14.118;2023-02-02T10:33:50;2.43;;;0.77;;
8331;SDS011;4203;48.144;14.118;2023-02-02T10:36:29;1.10;;;1.00;;
8331;SDS011;4203;48.144;14.118;2023-02-02T10:39:08;0.73;;;0.70;;
8331;SDS011;4203;48.144;14.118;2023-02-02T10:41:44;0.90;;;0.90;;
8331;SDS011;4203;48.144;14.118;2023-02-02T10:44:21;0.97;;;0.83;;
8331;SDS011;4203;48.144;14.118;2023-02-02T10:46:56;1.57;;;1.40;;
8331;SDS011;4203;48.144;14.118;2023-02-02T10:49:29;1.00;;;1.00;;
8331;SDS011;4203;48.144;14.118;2023-02-02T10:52:00;1.30;;;1.30;;
8331;SDS011;4203;48.144;14.118;2023-02-02T10:57:36;1.10;;;1.00;;
8331;SDS011;4203;48.144;14.118;2023-02-02T11:00:14;2.30;;;2.10;;
8331;SDS011;4203;48.144;14.118;2023-02-02T11:02:47;1.00;;;1.00;;
8331;SDS011;4203;48.144;14.118;2023-02-02T11:05:17;0.80;;;0.80;;
8331;SDS011;4203;48.144;14.118;2023-02-02T11:08:11;0.73;;;0.73;;
8331;SDS011;4203;48.144;14.118;2023-02-02T11:10:40;0.80;;;0.80;;
8331;SDS011;4203;48.144;14.118;2023-02-02T11:13:11;1.33;;;1.20;;
8331;SDS011;4203;48.144;14.118;2023-02-02T11:15:43;0.93;;;0.93;;
8331;SDS011;4203;48.144;14.118;2023-02-02T11:18:24;0.80;;;0.80;;
8331;SDS011;4203;48.144;14.118;2023-02-02T11:20:54;0.90;;;0.90;;
8331;SDS011;4203;48.144;14.118;2023-02-02T11:23:22;0.80;;;0.80;;
8331;SDS011;4203;48.144;14.118;2023-02-02T11:25:57;2.17;;;0.83;;
8331;SDS011;4203;48.144;14.118;2023-02-02T11:28:26;0.70;;;0.70;;
8331;SDS011;4203;48.144;14.118;2023-02-02T11:30:59;0.93;;;0.93;;
8331;SDS011;4203;48.144;14.118;2023-02-02T11:33:28;1.47;;;1.00;;
8331;SDS011;4203;48.144;14.118;2023-02-02T11:35:59;1.70;;;0.80;;
8331;SDS011;4203;48.144;14.118;2023-02-02T11:38:27;1.00;;;1.00;;
8331;SDS011;4203;48.144;14.118;2023-02-02T11:40:56;1.33;;;0.90;;
8331;SDS011;4203;48.144;14.118;2023-02-02T11:43:29;1.57;;;0.90;;
8331;SDS011;4203;48.144;14.118;2023-02-02T11:45:59;0.90;;;0.90;;
8331;SDS011;4203;48.144;14.118;2023-02-02T11:48:31;0.80;;;0.80;;
8331;SDS011;4203;48.144;14.118;2023-02-02T11:51:01;0.90;;;0.90;;
8331;SDS011;4203;48.144;14.118;2023-02-02T11:53:30;0.83;;;0.83;;
8331;SDS011;4203;48.144;14.118;2023-02-02T11:56:00;0.83;;;0.80;;
8331;SDS011;4203;48.144;14.118;2023-02-02T11:58:41;1.20;;;1.20;;
8331;SDS011;4203;48.144;14.118;2023-02-02T12:01:15;1.40;;;1.40;;
8331;SDS011;4203;48.144;14.118;2023-02-02T12:03:53;1.30;;;1.30;;
8331;SDS011;4203;48.144;14.118;2023-02-02T12:06:22;1.13;;;1.13;;
8331;SDS011;4203;48.144;14.118;2023-02-02T12:08:52;1.30;;;1.30;;
8331;SDS011;4203;48.144;14.118;2023-02-02T12:11:32;1.30;;;1.30;;
8331;SDS011;4203;48.144;14.118;2023-02-02T12:14:17;1.17;;;1.17;;
8331;SDS011;4203;48.144;14.118;2023-02-02T12:16:54;1.30;;;1.30;;
8331;SDS011;4203;48.144;14.118;2023-02-02T12:19:36;1.67;;;1.50;;
8331;SDS011;4203;48.144;14.118;2023-02-02T12:22:18;1.73;;;1.50;;
8331;SDS011;4203;48.144;14.118;2023-02-02T12:24:52;1.50;;;1.50;;
8331;SDS011;4203;48.144;14.118;2023-02-02T12:27:26;1.87;;;1.77;;
8331;SDS011;4203;48.144;14.118;2023-02-02T12:30:18;1.43;;;1.43;;
8331;SDS011;4203;48.144;14.118;2023-02-02T12:36:09;2.50;;;1.57;;
8331;SDS011;4203;48.144;14.118;2023-02-02T12:38:52;3.03;;;1.87;;
8331;SDS011;4203;48.144;14.118;2023-02-02T12:41:51;2.00;;;1.90;;
8331;SDS011;4203;48.144;14.118;2023-02-02T12:44:55;1.90;;;1.80;;
8331;SDS011;4203;48.144;14.118;2023-02-02T12:47:35;2.20;;;2.10;;
8331;SDS011;4203;48.144;14.118;2023-02-02T12:50:15;2.20;;;2.10;;
8331;SDS011;4203;48.144;14.118;2023-02-02T12:52:56;2.57;;;2.47;;
8331;SDS011;4203;48.144;14.118;2023-02-02T12:55:34;2.57;;;2.37;;
8331;SDS011;4203;48.144;14.118;2023-02-02T12:58:10;2.50;;;2.40;;
8331;SDS011;4203;48.144;14.118;2023-02-02T13:00:55;2.50;;;2.30;;
8331;SDS011;4203;48.144;14.118;2023-02-02T13:06:40;2.30;;;2.20;;
8331;SDS011;4203;48.144;14.118;2023-02-02T13:09:35;2.20;;;2.10;;
8331;SDS011;4203;48.144;14.118;2023-02-02T13:12:08;2.03;;;1.93;;
8331;SDS011;4203;48.144;14.118;2023-02-02T13:14:39;2.20;;;2.10;;
8331;SDS011;4203;48.144;14.118;2023-02-02T13:17:10;2.20;;;2.10;;
8331;SDS011;4203;48.144;14.118;2023-02-02T13:19:41;2.20;;;2.10;;
8331;SDS011;4203;48.144;14.118;2023-02-02T13:22:12;2.10;;;2.00;;
8331;SDS011;4203;48.144;14.118;2023-02-02T13:24:46;2.13;;;2.03;;
8331;SDS011;4203;48.144;14.118;2023-02-02T13:27:16;2.10;;;2.00;;
8331;SDS011;4203;48.144;14.118;2023-02-02T13:29:46;2.00;;;1.93;;
8331;SDS011;4203;48.144;14.118;2023-02-02T13:32:19;2.30;;;2.20;;
8331;SDS011;4203;48.144;14.118;2023-02-02T13:34:52;3.57;;;2.50;;
8331;SDS011;4203;48.144;14.118;2023-02-02T13:37:26;2.43;;;2.33;;
8331;SDS011;4203;48.144;14.118;2023-02-02T13:40:04;2.40;;;2.30;;
8331;SDS011;4203;48.144;14.118;2023-02-02T13:42:42;2.30;;;2.20;;
8331;SDS011;4203;48.144;14.118;2023-02-02T13:45:16;2.20;;;2.10;;
8331;SDS011;4203;48.144;14.118;2023-02-02T13:48:01;2.70;;;2.60;;
8331;SDS011;4203;48.144;14.118;2023-02-02T13:50:44;2.70;;;2.50;;
8331;SDS011;4203;48.144;14.118;2023-02-02T13:53:30;2.53;;;2.43;;
8331;SDS011;4203;48.144;14.118;2023-02-02T13:56:21;2.93;;;2.73;;
8331;SDS011;4203;48.144;14.118;2023-02-02T13:59:07;2.60;;;2.50;;
8331;SDS011;4203;48.144;14.118;2023-02-02T14:01:47;2.60;;;2.40;;
8331;SDS011;4203;48.144;14.118;2023-02-02T14:04:18;2.60;;;2.40;;
8331;SDS011;4203;48.144;14.118;2023-02-02T14:06:51;2.93;;;2.57;;
8331;SDS011;4203;48.144;14.118;2023-02-02T14:09:23;4.13;;;2.10;;
8331;SDS011;4203;48.144;14.118;2023-02-02T14:11:55;2.87;;;2.67;;
8331;SDS011;4203;48.144;14.118;2023-02-02T14:14:25;2.90;;;2.30;;
8331;SDS011;4203;48.144;14.118;2023-02-02T14:17:00;2.67;;;2.50;;
8331;SDS011;4203;48.144;14.118;2023-02-02T14:19:48;2.50;;;2.40;;
8331;SDS011;4203;48.144;14.118;2023-02-02T14:28:40;1.90;;;1.80;;
8331;SDS011;4203;48.144;14.118;2023-02-02T14:31:16;2.10;;;2.00;;
8331;SDS011;4203;48.144;14.118;2023-02-02T14:37:04;1.90;;;1.80;;
8331;SDS011;4203;48.144;14.118;2023-02-02T14:39:57;1.77;;;1.67;;
8331;SDS011;4203;48.144;14.118;2023-02-02T14:42:42;2.70;;;1.80;;
8331;SDS011;4203;48.144;14.118;2023-02-02T14:45:36;1.83;;;1.77;;
8331;SDS011;4203;48.144;14.118;2023-02-02T14:48:07;1.63;;;1.63;;
8331;SDS011;4203;48.144;14.118;2023-02-02T14:50:43;2.00;;;1.90;;
8331;SDS011;4203;48.144;14.118;2023-02-02T14:53:16;2.00;;;1.90;;
8331;SDS011;4203;48.144;14.118;2023-02-02T14:55:52;1.70;;;1.60;;
8331;SDS011;4203;48.144;14.118;2023-02-02T14:58:30;1.50;;;1.50;;
8331;SDS011;4203;48.144;14.118;2023-02-02T15:01:04;1.60;;;1.50;;
8331;SDS011;4203;48.144;14.118;2023-02-02T15:03:36;1.50;;;1.40;;
8331;SDS011;4203;48.144;14.118;2023-02-02T15:06:15;2.00;;;1.40;;
8331;SDS011;4203;48.144;14.118;2023-02-02T15:14:51;1.10;;;1.10;;
8331;SDS011;4203;48.144;14.118;2023-02-02T15:17:28;1.07;;;1.07;;
8331;SDS011;4203;48.144;14.118;2023-02-02T15:20:07;1.30;;;1.30;;
8331;SDS011;4203;48.144;14.118;2023-02-02T15:22:47;1.57;;;1.50;;
8331;SDS011;4203;48.144;14.118;2023-02-02T15:25:21;1.97;;;1.77;;
8331;SDS011;4203;48.144;14.118;2023-02-02T15:27:53;1.73;;;1.63;;
8331;SDS011;4203;48.144;14.118;2023-02-02T15:30:25;1.87;;;1.77;;
8331;SDS011;4203;48.144;14.118;2023-02-02T15:32:58;2.30;;;2.20;;
8331;SDS011;4203;48.144;14.118;2023-02-02T15:35:33;2.60;;;2.50;;
8331;SDS011;4203;48.144;14.118;2023-02-02T15:38:00;2.50;;;2.40;;
8331;SDS011;4203;48.144;14.118;2023-02-02T15:40:31;2.90;;;2.70;;
8331;SDS011;4203;48.144;14.118;2023-02-02T15:43:03;2.30;;;2.20;;
8331;SDS011;4203;48.144;14.118;2023-02-02T15:45:35;2.40;;;2.27;;
8331;SDS011;4203;48.144;14.118;2023-02-02T15:48:16;2.30;;;2.20;;
8331;SDS011;4203;48.144;14.118;2023-02-02T15:50:46;2.87;;;2.67;;
8331;SDS011;4203;48.144;14.118;2023-02-02T15:53:20;2.63;;;2.43;;
8331;SDS011;4203;48.144;14.118;2023-02-02T15:55:50;2.60;;;2.50;;
8331;SDS011;4203;48.144;14.118;2023-02-02T15:58:25;2.83;;;2.70;;
8331;SDS011;4203;48.144;14.118;2023-02-02T16:00:58;4.97;;;4.57;;
8331;SDS011;4203;48.144;14.118;2023-02-02T16:03:31;3.87;;;3.63;;
8331;SDS011;4203;48.144;14.118;2023-02-02T16:06:02;5.00;;;4.60;;
8331;SDS011;4203;48.144;14.118;2023-02-02T16:08:32;3.00;;;2.80;;
8331;SDS011;4203;48.144;14.118;2023-02-02T16:11:04;3.63;;;3.43;;
8331;SDS011;4203;48.144;14.118;2023-02-02T16:13:34;4.87;;;4.37;;
8331;SDS011;4203;48.144;14.118;2023-02-02T16:16:03;3.43;;;3.20;;
8331;SDS011;4203;48.144;14.118;2023-02-02T16:18:33;2.90;;;2.70;;
8331;SDS011;4203;48.144;14.118;2023-02-02T16:21:03;2.80;;;2.63;;
8331;SDS011;4203;48.144;14.118;2023-02-02T16:23:46;2.30;;;2.20;;
8331;SDS011;4203;48.144;14.118;2023-02-02T16:26:14;2.53;;;2.33;;
8331;SDS011;4203;48.144;14.118;2023-02-02T16:28:42;2.90;;;2.80;;
8331;SDS011;4203;48.144;14.118;2023-02-02T16:31:10;3.70;;;3.50;;
8331;SDS011;4203;48.144;14.118;2023-02-02T16:33:40;3.40;;;3.20;;
8331;SDS011;4203;48.144;14.118;2023-02-02T16:36:19;5.50;;;5.10;;
8331;SDS011;4203;48.144;14.118;2023-02-02T16:38:48;5.67;;;5.27;;
8331;SDS011;4203;48.144;14.118;2023-02-02T16:41:26;3.50;;;3.20;;
8331;SDS011;4203;48.144;14.118;2023-02-02T16:43:56;2.43;;;2.33;;
8331;SDS011;4203;48.144;14.118;2023-02-02T16:46:56;2.90;;;2.70;;
8331;SDS011;4203;48.144;14.118;2023-02-02T16:49:27;2.60;;;2.50;;
8331;SDS011;4203;48.144;14.118;2023-02-02T16:52:09;3.37;;;3.17;;
8331;SDS011;4203;48.144;14.118;2023-02-02T16:54:39;2.70;;;2.60;;
8331;SDS011;4203;48.144;14.118;2023-02-02T16:57:13;3.00;;;2.80;;
8331;SDS011;4203;48.144;14.118;2023-02-02T16:59:46;3.00;;;2.80;;
8331;SDS011;4203;48.144;14.118;2023-02-02T17:02:18;3.70;;;3.50;;
8331;SDS011;4203;48.144;14.118;2023-02-02T17:04:53;4.07;;;3.77;;